createdAt,value
2019-02-12T00:02:07.883Z,1.27
2019-02-12T00:04:34.970Z,1.28
2019-02-12T00:07:03.257Z,1.26
2019-02-12T00:09:30.330Z,1.27
2019-02-12T00:11:57.447Z,1.25
2019-02-12T00:14:24.574Z,1.16
2019-02-12T00:16:51.688Z,1.14
2019-02-12T00:19:18.863Z,1.12
2019-02-12T00:21:46.169Z,1.09
2019-02-12T00:24:13.565Z,1.12
2019-02-12T00:26:40.644Z,1.12
2019-02-12T00:29:07.931Z,1.09
2019-02-12T00:31:35.018Z,1.03
2019-02-12T00:34:02.077Z,1.02
2019-02-12T00:36:29.162Z,0.98
2019-02-12T00:38:56.202Z,0.96
2019-02-12T00:41:23.333Z,0.92
2019-02-12T00:43:50.428Z,0.86
2019-02-12T00:46:17.482Z,0.80
2019-02-12T00:48:44.663Z,0.79
2019-02-12T00:51:17.583Z,0.74
2019-02-12T00:53:40.799Z,0.75
2019-02-12T00:56:07.925Z,0.81
2019-02-12T00:58:35.047Z,0.75
2019-02-12T01:01:02.083Z,0.72
2019-02-12T01:03:29.147Z,0.70
2019-02-12T01:05:56.414Z,0.70
2019-02-12T01:08:23.469Z,0.64
2019-02-12T01:10:50.593Z,0.61
2019-02-12T01:13:18.943Z,0.58
2019-02-12T01:15:46.100Z,0.53
2019-02-12T01:18:13.207Z,0.45
2019-02-12T01:20:40.249Z,0.48
2019-02-12T01:23:07.313Z,0.52
2019-02-12T01:25:34.416Z,0.54
2019-02-12T01:28:01.466Z,0.58
2019-02-12T01:30:28.520Z,0.64
2019-02-12T01:32:55.701Z,0.69
2019-02-12T01:35:22.821Z,0.68
2019-02-12T01:37:49.902Z,0.72
2019-02-12T01:40:17.001Z,0.77
2019-02-12T01:42:44.187Z,0.79
2019-02-12T01:45:12.229Z,0.84
2019-02-12T01:47:39.311Z,0.86
2019-02-12T01:50:07.960Z,0.84
2019-02-12T01:52:35.059Z,0.84
2019-02-12T01:55:02.145Z,0.80
2019-02-12T01:57:29.185Z,0.77
2019-02-12T01:59:56.259Z,0.75
2019-02-12T02:02:23.338Z,0.71
2019-02-12T02:04:50.396Z,0.71
2019-02-12T02:07:17.493Z,0.68
2019-02-12T02:09:44.542Z,0.59
2019-02-12T02:12:11.611Z,0.63
2019-02-12T02:14:38.690Z,0.74
2019-02-12T02:17:05.787Z,0.76
2019-02-12T02:19:32.835Z,0.77
2019-02-12T02:21:59.929Z,0.78
2019-02-12T02:24:26.983Z,0.81
2019-02-12T02:26:54.148Z,0.84
2019-02-12T02:29:21.273Z,0.85
2019-02-12T02:31:48.328Z,0.85
2019-02-12T02:34:15.382Z,0.82
2019-02-12T02:36:42.579Z,0.83
2019-02-12T02:39:09.628Z,0.85
2019-02-12T02:41:36.717Z,0.85
2019-02-12T02:44:05.576Z,0.85
2019-02-12T02:46:32.645Z,0.85
2019-02-12T02:48:59.745Z,0.87
2019-02-12T02:51:26.860Z,0.84
2019-02-12T02:53:53.968Z,0.88
2019-02-12T02:56:21.018Z,0.87
2019-02-12T02:58:48.100Z,0.88
2019-02-12T03:01:15.166Z,0.87
2019-02-12T03:03:42.243Z,0.86
2019-02-12T03:06:09.282Z,0.86
2019-02-12T03:08:36.392Z,0.84
2019-02-12T03:11:03.484Z,0.83
2019-02-12T03:13:30.524Z,0.83
2019-02-12T03:15:57.572Z,0.76
2019-02-12T03:18:24.653Z,0.68
2019-02-12T03:20:51.716Z,0.63
2019-02-12T03:23:18.803Z,0.59
2019-02-12T03:25:45.864Z,0.50
2019-02-12T03:28:12.947Z,0.43
2019-02-12T03:30:40.122Z,0.39
2019-02-12T03:33:08.631Z,0.41
2019-02-12T03:35:35.696Z,0.41
2019-02-12T03:38:02.812Z,0.42
2019-02-12T03:41:15.323Z,0.39
2019-02-12T03:43:42.417Z,0.34
2019-02-12T03:46:09.483Z,0.27
2019-02-12T03:48:36.586Z,0.24
2019-02-12T03:51:03.654Z,0.22
2019-02-12T03:53:32.513Z,0.22
2019-02-12T03:55:59.573Z,0.19
2019-02-12T03:58:26.665Z,0.23
2019-02-12T04:00:53.762Z,0.26
2019-02-12T04:03:20.846Z,0.29
2019-02-12T04:05:47.950Z,0.30
2019-02-12T04:08:15.138Z,0.30
2019-02-12T04:10:42.228Z,0.37
2019-02-12T04:13:09.717Z,0.39
2019-02-12T04:15:37.003Z,0.44
2019-02-12T04:18:04.096Z,0.44
2019-02-12T04:20:31.139Z,0.40
2019-02-12T04:22:58.207Z,0.43
2019-02-12T04:25:25.455Z,0.47
2019-02-12T04:27:52.490Z,0.51
2019-02-12T04:30:19.531Z,0.49
2019-02-12T04:32:48.427Z,0.53
2019-02-12T04:35:16.678Z,0.58
2019-02-12T04:37:43.788Z,0.64
2019-02-12T04:40:11.040Z,0.64
2019-02-12T04:42:38.102Z,0.65
2019-02-12T04:45:06.354Z,0.66
2019-02-12T04:47:33.555Z,0.61
2019-02-12T04:50:00.611Z,0.61
2019-02-12T04:52:31.888Z,0.61
2019-02-12T04:54:56.670Z,0.65
2019-02-12T04:57:23.932Z,0.67
2019-02-12T04:59:50.966Z,0.62
2019-02-12T05:02:18.264Z,0.63
2019-02-12T05:04:45.271Z,0.61
2019-02-12T05:07:12.327Z,0.62
2019-02-12T05:09:41.537Z,0.60
2019-02-12T05:12:08.595Z,0.57
2019-02-12T05:14:35.677Z,0.57
2019-02-12T05:17:02.980Z,0.51
2019-02-12T05:19:30.020Z,0.51
2019-02-12T05:21:57.104Z,0.44
2019-02-12T05:24:24.229Z,0.42
2019-02-12T05:26:51.374Z,0.37
2019-02-12T05:29:18.582Z,0.32
2019-02-12T05:31:45.721Z,0.28
2019-02-12T05:34:12.812Z,0.24
2019-02-12T05:36:39.885Z,0.21
2019-02-12T05:39:07.808Z,0.22
2019-02-12T05:41:34.879Z,0.19
2019-02-12T05:44:01.938Z,0.20
2019-02-12T05:46:29.035Z,0.17
2019-02-12T05:48:56.139Z,0.17
2019-02-12T05:51:23.233Z,0.20
2019-02-12T05:53:50.426Z,0.22
2019-02-12T05:56:17.605Z,0.23
2019-02-12T05:58:44.662Z,0.26
2019-02-12T06:01:11.721Z,0.29
2019-02-12T06:03:38.866Z,0.34
2019-02-12T06:06:06.028Z,0.36
2019-02-12T06:08:33.094Z,0.36
2019-02-12T06:11:00.209Z,0.40
2019-02-12T06:13:27.302Z,0.41
2019-02-12T06:15:54.833Z,0.43
2019-02-12T06:18:21.887Z,0.44
2019-02-12T06:20:49.006Z,0.43
2019-02-12T06:23:16.087Z,0.42
2019-02-12T06:25:43.196Z,0.44
2019-02-12T06:28:10.274Z,0.48
2019-02-12T06:30:37.357Z,0.49
2019-02-12T06:33:07.612Z,0.52
2019-02-12T06:35:33.439Z,0.52
2019-02-12T06:38:00.490Z,0.51
2019-02-12T06:40:27.779Z,0.53
2019-02-12T06:42:54.890Z,0.51
2019-02-12T06:45:22.012Z,0.54
2019-02-12T06:47:49.126Z,0.62
2019-02-12T06:50:16.191Z,0.66
2019-02-12T06:52:43.723Z,0.72
2019-02-12T06:55:11.781Z,0.78
2019-02-12T06:57:39.674Z,0.79
2019-02-12T07:00:07.754Z,0.81
2019-02-12T07:03:09.258Z,0.82
2019-02-12T07:05:37.123Z,0.84
2019-02-12T07:08:38.780Z,0.85
2019-02-12T07:11:16.902Z,0.87
2019-02-12T07:14:15.819Z,0.89
2019-02-12T07:17:15.967Z,0.92
2019-02-12T07:20:06.171Z,1.00
2019-02-12T07:23:21.193Z,1.00
2019-02-12T07:26:45.859Z,1.03
2019-02-12T07:29:26.304Z,1.07
2019-02-12T07:32:44.068Z,1.08
2019-02-12T07:36:00.930Z,1.15
2019-02-12T07:38:49.359Z,1.21
2019-02-12T07:41:58.160Z,1.25
2019-02-12T07:44:50.931Z,1.33
2019-02-12T07:47:54.909Z,1.40
2019-02-12T07:50:54.336Z,1.42
2019-02-12T07:54:31.095Z,1.51
2019-02-12T07:57:32.668Z,1.57
2019-02-12T08:00:40.768Z,1.63
2019-02-12T08:03:48.040Z,1.65
2019-02-12T08:06:52.897Z,1.70
2019-02-12T08:10:05.422Z,1.81
2019-02-12T08:13:15.117Z,1.89
2019-02-12T08:16:16.424Z,1.96
2019-02-12T08:19:37.582Z,1.99
2019-02-12T08:22:51.901Z,2.01
2019-02-12T08:25:34.315Z,2.05
2019-02-12T08:28:45.217Z,2.13
2019-02-12T08:31:51.278Z,2.16
2019-02-12T08:34:56.133Z,2.26
2019-02-12T08:37:56.775Z,2.26
2019-02-12T08:41:02.783Z,2.30
2019-02-12T08:44:24.307Z,2.35
2019-02-12T08:47:38.930Z,2.39
2019-02-12T08:50:43.536Z,2.40
2019-02-12T08:53:51.729Z,2.39
2019-02-12T08:57:03.778Z,2.44
2019-02-12T08:59:50.809Z,2.49
2019-02-12T09:02:45.936Z,2.56
2019-02-12T09:05:37.419Z,2.55
2019-02-12T09:08:47.123Z,2.62
2019-02-12T09:12:17.127Z,2.64
2019-02-12T09:15:24.760Z,2.68
2019-02-12T09:18:21.208Z,2.68
2019-02-12T09:21:18.218Z,2.73
2019-02-12T09:24:35.884Z,2.73
2019-02-12T09:27:56.781Z,2.75
2019-02-12T09:31:23.721Z,2.76
2019-02-12T09:34:31.617Z,2.81
2019-02-12T09:37:22.768Z,2.85
2019-02-12T09:40:18.640Z,2.92
2019-02-12T09:43:04.718Z,2.96
2019-02-12T09:46:28.628Z,2.97
2019-02-12T09:49:32.288Z,3.00
2019-02-12T09:52:33.452Z,3.00
2019-02-12T09:55:31.355Z,3.09
2019-02-12T09:58:40.197Z,3.08
2019-02-12T10:01:34.816Z,3.19
2019-02-12T10:04:40.532Z,3.25
2019-02-12T10:07:39.140Z,3.29
2019-02-12T10:10:46.183Z,3.32
2019-02-12T10:13:31.460Z,3.34
2019-02-12T10:16:28.714Z,3.32
2019-02-12T10:19:29.884Z,3.37
2019-02-12T10:22:31.582Z,3.41
2019-02-12T10:25:02.697Z,3.53
2019-02-12T10:28:06.157Z,3.59
2019-02-12T10:30:57.996Z,3.60
2019-02-12T10:33:31.114Z,3.68
2019-02-12T10:35:58.181Z,3.70
2019-02-12T10:38:25.308Z,3.74
2019-02-12T10:40:52.357Z,3.79
2019-02-12T10:43:19.407Z,3.83
2019-02-12T10:45:46.469Z,3.91
2019-02-12T10:48:13.585Z,3.95
2019-02-12T10:50:40.642Z,4.04
2019-02-12T10:53:09.062Z,4.13
2019-02-12T10:55:36.160Z,4.19
2019-02-12T10:58:03.234Z,4.22
2019-02-12T11:00:30.412Z,4.33
2019-02-12T11:02:57.507Z,4.34
2019-02-12T11:05:24.551Z,4.38
2019-02-12T11:07:51.613Z,4.38
2019-02-12T11:10:18.734Z,4.38
2019-02-12T11:12:45.773Z,4.40
2019-02-12T11:15:13.013Z,4.47
2019-02-12T11:17:40.107Z,4.48
2019-02-12T11:20:07.238Z,4.59
2019-02-12T11:22:34.269Z,4.50
2019-02-12T11:25:01.417Z,4.63
2019-02-12T11:27:48.108Z,4.67
2019-02-12T11:30:15.358Z,4.74
2019-02-12T11:32:42.422Z,4.72
2019-02-12T11:35:09.594Z,4.70
2019-02-12T11:37:36.685Z,4.78
2019-02-12T11:40:04.552Z,4.78
2019-02-12T11:42:31.629Z,4.85
2019-02-12T11:44:58.737Z,4.98
2019-02-12T11:47:25.821Z,5.04
2019-02-12T11:49:52.887Z,5.17
2019-02-12T11:52:20.023Z,5.28
2019-02-12T11:54:47.750Z,5.38
2019-02-12T11:57:15.921Z,5.39
2019-02-12T11:59:43.230Z,5.37
2019-02-12T12:02:10.283Z,5.50
2019-02-12T12:04:37.344Z,5.60
2019-02-12T12:07:04.536Z,5.66
2019-02-12T12:09:31.708Z,5.68
2019-02-12T12:11:58.796Z,5.74
2019-02-12T12:14:25.891Z,5.70
2019-02-12T12:16:52.991Z,5.71
2019-02-12T12:19:20.049Z,5.82
2019-02-12T12:21:47.217Z,5.93
2019-02-12T12:24:14.401Z,6.10
2019-02-12T12:26:41.448Z,6.22
2019-02-12T12:29:08.534Z,6.22
2019-02-12T12:31:35.624Z,6.25
2019-02-12T12:34:02.759Z,6.35
2019-02-12T12:36:29.848Z,6.37
2019-02-12T12:38:56.945Z,6.42
2019-02-12T12:41:24.003Z,6.56
2019-02-12T12:43:51.059Z,6.62
2019-02-12T12:46:18.181Z,6.69
2019-02-12T12:48:45.253Z,6.63
2019-02-12T12:51:12.332Z,6.65
2019-02-12T12:53:39.422Z,6.76
2019-02-12T12:56:06.502Z,6.79
2019-02-12T12:58:33.570Z,6.89
2019-02-12T13:01:00.935Z,7.00
2019-02-12T13:03:28.297Z,7.08
2019-02-12T13:05:55.438Z,7.20
2019-02-12T13:08:22.676Z,7.29
2019-02-12T13:10:57.239Z,7.48
2019-02-12T13:13:24.602Z,7.64
2019-02-12T13:15:51.664Z,7.99
2019-02-12T13:18:18.870Z,8.10
2019-02-12T13:20:45.987Z,8.19
2019-02-12T13:23:13.049Z,8.34
2019-02-12T13:25:40.093Z,8.49
2019-02-12T13:28:07.488Z,8.65
2019-02-12T13:30:34.723Z,8.92
2019-02-12T13:33:01.768Z,9.17
2019-02-12T13:35:28.863Z,9.25
2019-02-12T13:37:55.923Z,9.43
2019-02-12T13:40:22.982Z,9.45
2019-02-12T13:42:50.055Z,9.37
2019-02-12T13:45:17.128Z,9.46
2019-02-12T13:47:45.360Z,9.28
2019-02-12T13:50:12.544Z,9.23
2019-02-12T13:52:39.606Z,9.25
2019-02-12T13:55:06.789Z,9.16
2019-02-12T13:57:34.009Z,9.25
2019-02-12T14:00:01.083Z,9.24
2019-02-12T14:02:28.160Z,9.35
2019-02-12T14:04:55.257Z,9.08
2019-02-12T14:07:22.342Z,8.79
2019-02-12T14:09:49.471Z,8.82
2019-02-12T14:12:16.562Z,8.59
2019-02-12T14:14:45.759Z,8.54
2019-02-12T14:17:12.835Z,8.43
2019-02-12T14:19:39.929Z,8.40
2019-02-12T14:22:06.981Z,8.35
2019-02-12T14:24:34.021Z,8.29
2019-02-12T14:27:01.126Z,8.27
2019-02-12T14:29:28.193Z,8.15
2019-02-12T14:31:55.277Z,8.15
2019-02-12T14:34:22.392Z,8.12
2019-02-12T14:36:49.462Z,8.02
2019-02-12T14:39:16.520Z,7.98
2019-02-12T14:41:43.625Z,7.98
2019-02-12T14:44:10.695Z,8.03
2019-02-12T14:46:43.282Z,8.28
2019-02-12T14:49:10.389Z,8.56
2019-02-12T14:51:37.453Z,8.68
2019-02-12T14:54:26.181Z,8.79
2019-02-12T14:56:53.269Z,8.81
2019-02-12T14:59:22.407Z,8.91
2019-02-12T15:01:49.653Z,8.95
2019-02-12T15:04:17.518Z,8.78
2019-02-12T15:06:44.671Z,8.73
2019-02-12T15:09:12.887Z,8.71
2019-02-12T15:11:40.065Z,8.58
2019-02-12T15:14:07.170Z,8.52
2019-02-12T15:16:34.232Z,8.43
2019-02-12T15:19:01.319Z,8.32
2019-02-12T15:21:28.413Z,8.15
2019-02-12T15:23:55.590Z,8.10
2019-02-12T15:26:22.662Z,8.10
2019-02-12T15:28:51.086Z,8.03
2019-02-12T15:31:18.282Z,7.96
2019-02-12T15:33:45.348Z,7.93
2019-02-12T15:36:12.560Z,7.92
2019-02-12T15:38:39.618Z,7.87
2019-02-12T15:41:06.740Z,7.77
2019-02-12T15:43:33.867Z,7.67
2019-02-12T15:46:00.935Z,7.61
2019-02-12T15:48:28.058Z,7.55
2019-02-12T15:50:55.191Z,7.52
2019-02-12T15:53:22.398Z,7.48
2019-02-12T15:55:51.294Z,7.41
2019-02-12T15:58:18.520Z,7.27
2019-02-12T16:00:45.592Z,7.16
2019-02-12T16:03:12.672Z,7.12
2019-02-12T16:05:39.827Z,7.13
2019-02-12T16:08:08.885Z,7.18
2019-02-12T16:10:37.516Z,7.15
2019-02-12T16:13:05.066Z,7.12
2019-02-12T16:15:32.153Z,7.06
2019-02-12T16:18:00.221Z,7.10
2019-02-12T16:20:29.087Z,7.07
2019-02-12T16:22:57.670Z,7.05
2019-02-12T16:25:24.796Z,7.00
2019-02-12T16:27:51.899Z,6.93
2019-02-12T16:30:19.011Z,6.89
2019-02-12T16:32:46.166Z,6.94
2019-02-12T16:35:13.986Z,6.94
2019-02-12T16:37:41.106Z,6.94
2019-02-12T16:40:09.150Z,6.89
2019-02-12T16:42:36.262Z,6.85
2019-02-12T16:45:04.078Z,6.87
2019-02-12T16:47:31.218Z,6.80
2019-02-12T16:49:59.665Z,6.66
2019-02-12T16:52:26.947Z,6.61
2019-02-12T16:54:54.079Z,6.59
2019-02-12T16:57:21.320Z,6.55
2019-02-12T16:59:48.394Z,6.48
2019-02-12T17:02:15.479Z,6.38
2019-02-12T17:04:42.571Z,6.30
2019-02-12T17:07:10.589Z,6.25
2019-02-12T17:09:37.751Z,6.18
2019-02-12T17:12:04.782Z,6.07
2019-02-12T17:14:32.189Z,6.10
2019-02-12T17:16:59.260Z,6.04
2019-02-12T17:19:26.379Z,5.91
2019-02-12T17:21:53.515Z,5.90
2019-02-12T17:24:20.635Z,5.86
2019-02-12T17:26:47.724Z,5.82
2019-02-12T17:29:14.804Z,5.79
2019-02-12T17:31:41.870Z,5.68
2019-02-12T17:34:09.135Z,5.63
2019-02-12T17:36:36.194Z,5.66
2019-02-12T17:39:05.020Z,5.66
2019-02-12T17:41:32.113Z,5.64
2019-02-12T17:43:59.178Z,5.61
2019-02-12T17:46:26.318Z,5.56
2019-02-12T17:48:53.885Z,5.52
2019-02-12T17:51:20.990Z,5.43
2019-02-12T17:53:48.103Z,5.42
2019-02-12T17:56:15.233Z,5.38
2019-02-12T17:58:42.309Z,5.32
2019-02-12T18:01:12.402Z,5.26
2019-02-12T18:03:39.567Z,5.21
2019-02-12T18:06:06.732Z,5.13
2019-02-12T18:08:33.927Z,5.04
2019-02-12T18:11:01.268Z,4.94
2019-02-12T18:13:31.217Z,4.89
2019-02-12T18:15:58.296Z,4.83
2019-02-12T18:18:25.630Z,4.85
2019-02-12T18:20:52.724Z,4.83
2019-02-12T18:23:19.820Z,4.81
2019-02-12T18:25:46.963Z,4.77
2019-02-12T18:28:14.094Z,4.73
2019-02-12T18:30:41.150Z,4.68
2019-02-12T18:33:08.250Z,4.63
2019-02-12T18:35:35.342Z,4.62
2019-02-12T18:38:04.436Z,4.63
2019-02-12T18:40:31.575Z,4.58
2019-02-12T18:42:58.765Z,4.54
2019-02-12T18:45:25.864Z,4.54
2019-02-12T18:47:52.988Z,4.53
2019-02-12T18:53:52.260Z,4.47
2019-02-12T18:56:19.425Z,4.42
2019-02-12T18:58:48.297Z,4.38
2019-02-12T19:01:15.512Z,4.38
2019-02-12T19:03:42.647Z,4.38
2019-02-12T19:06:09.828Z,4.48
2019-02-12T19:08:36.985Z,4.46
2019-02-12T19:11:04.169Z,4.41
2019-02-12T19:13:31.388Z,4.37
2019-02-12T19:15:58.615Z,4.38
2019-02-12T19:18:26.547Z,4.40
2019-02-12T19:20:53.839Z,4.36
2019-02-12T19:23:20.998Z,4.43
2019-02-12T19:30:24.643Z,4.49
2019-02-12T19:32:51.780Z,4.53
2019-02-12T19:35:18.842Z,4.52
2019-02-12T19:37:46.011Z,4.50
2019-02-12T19:40:13.264Z,4.48
2019-02-12T19:42:40.364Z,4.42
2019-02-12T19:45:08.266Z,4.37
2019-02-12T19:47:35.332Z,4.32
2019-02-12T19:50:02.530Z,4.23
2019-02-12T19:52:29.656Z,4.18
2019-02-12T19:54:56.767Z,4.15
2019-02-12T19:57:23.895Z,4.24
2019-02-12T19:59:50.996Z,4.23
2019-02-12T20:02:18.086Z,4.23
2019-02-12T20:04:45.286Z,4.29
2019-02-12T20:07:12.458Z,4.36
2019-02-12T20:09:39.653Z,4.43
2019-02-12T20:12:06.727Z,4.46
2019-02-12T20:14:34.042Z,4.48
2019-02-12T20:17:01.152Z,4.52
2019-02-12T20:19:29.606Z,4.51
2019-02-12T20:21:56.722Z,4.52
2019-02-12T20:24:23.781Z,4.57
2019-02-12T20:26:51.020Z,4.64
2019-02-12T20:29:18.143Z,4.62
2019-02-12T20:31:45.190Z,4.60
2019-02-12T20:34:12.367Z,4.64
2019-02-12T20:36:39.712Z,4.61
2019-02-12T20:39:06.769Z,4.55
2019-02-12T20:41:33.880Z,4.58
2019-02-12T20:44:01.081Z,4.59
2019-02-12T20:47:21.666Z,4.62
2019-02-12T20:49:48.802Z,4.58
2019-02-12T20:52:15.920Z,4.64
2019-02-12T20:54:45.859Z,4.70
2019-02-12T20:57:14.918Z,4.61
2019-02-12T20:59:41.945Z,4.61
2019-02-12T21:02:09.016Z,4.61
2019-02-12T21:04:36.227Z,4.59
2019-02-12T21:07:03.256Z,4.57
2019-02-12T21:09:30.303Z,4.58
2019-02-12T21:11:57.442Z,4.54
2019-02-12T21:14:24.608Z,4.63
2019-02-12T21:16:51.842Z,4.68
2019-02-12T21:19:55.907Z,4.76
2019-02-12T21:22:23.000Z,4.71
2019-02-12T21:24:50.086Z,4.62
2019-02-12T21:27:23.147Z,4.62
2019-02-12T21:29:47.971Z,4.63
2019-02-12T21:32:15.095Z,4.63
2019-02-12T21:34:48.255Z,4.64
2019-02-12T21:37:15.320Z,4.63
2019-02-12T21:39:42.432Z,4.70
2019-02-12T21:42:09.528Z,4.74
2019-02-12T21:44:36.664Z,4.76
2019-02-12T21:47:03.734Z,4.78
2019-02-12T21:49:48.464Z,4.80
2019-02-12T21:52:15.520Z,4.75
2019-02-12T21:54:42.603Z,4.72
2019-02-12T21:57:09.684Z,4.65
2019-02-12T21:59:36.770Z,4.66
2019-02-12T22:02:03.916Z,4.60
2019-02-12T22:04:31.122Z,4.56
2019-02-12T22:06:58.211Z,4.56
2019-02-12T22:09:25.357Z,4.49
2019-02-12T22:11:53.550Z,4.54
2019-02-12T22:14:20.711Z,4.53
2019-02-12T22:16:47.767Z,4.40
2019-02-12T22:19:15.036Z,4.39
2019-02-12T22:21:42.089Z,4.31
2019-02-12T22:24:09.326Z,4.28
2019-02-12T22:26:36.547Z,4.23
2019-02-12T22:29:03.674Z,4.23
2019-02-12T22:31:30.749Z,4.24
2019-02-12T22:34:17.162Z,4.17
2019-02-12T22:36:44.224Z,4.15
2019-02-12T22:39:11.413Z,4.11
2019-02-12T22:41:38.534Z,4.13
2019-02-12T22:44:06.034Z,4.08
2019-02-12T22:46:33.155Z,4.05
2019-02-12T22:49:00.382Z,3.99
2019-02-12T22:51:27.469Z,3.91
2019-02-12T22:53:54.569Z,3.84
2019-02-12T22:56:21.652Z,3.91
2019-02-12T22:58:48.753Z,3.84
2019-02-12T23:01:16.563Z,3.90
2019-02-12T23:03:43.666Z,3.89
2019-02-12T23:06:10.782Z,3.86
2019-02-12T23:08:37.829Z,3.89
2019-02-12T23:11:05.061Z,3.88
2019-02-12T23:13:32.766Z,3.86
2019-02-12T23:16:07.291Z,3.82
2019-02-12T23:18:34.350Z,3.79
2019-02-12T23:21:01.430Z,3.77
2019-02-12T23:23:28.497Z,3.80
2019-02-12T23:25:55.623Z,3.75
2019-02-12T23:28:22.696Z,3.78
2019-02-12T23:30:49.809Z,3.77
2019-02-12T23:33:17.070Z,3.75
2019-02-12T23:35:44.147Z,3.73
2019-02-12T23:38:11.237Z,3.70
2019-02-12T23:40:38.558Z,3.67
2019-02-12T23:43:05.658Z,3.64
2019-02-12T23:45:32.809Z,3.62
2019-02-12T23:47:59.865Z,3.60
2019-02-12T23:50:26.970Z,3.57
2019-02-12T23:53:11.428Z,3.56
2019-02-12T23:55:38.504Z,3.58
2019-02-12T23:58:06.248Z,3.65
